Time;durP1;ratioP1;P1;durP2;ratioP2;P2;SDS_P1;SDS_P2;PMS_P1;PMS_P2;Temp;Humidity;BMP_temperature;BMP_pressure;BME280_temperature;BME280_humidity;BME280_pressure;Samples;Min_cycle;Max_cycle;Signal;HPM_P1;HPM_P2
2022/05/09 00:00:10;;;;;;;9.10;8.37;;;21.00;52.50;;;;;;5058104;28;20445;-47
2022/05/09 00:02:36;;;;;;;11.03;9.60;;;20.90;52.50;;;;;;5050558;28;20235;-43
2022/05/09 00:05:02;;;;;;;9.57;8.67;;;20.90;52.60;;;;;;5063660;28;20454;-43
2022/05/09 00:07:28;;;;;;;9.10;8.40;;;20.70;52.60;;;;;;5054435;28;20195;-44
2022/05/09 00:09:54;;;;;;;8.67;7.97;;;20.60;52.80;;;;;;5052540;28;20467;-47
2022/05/09 00:12:20;;;;;;;8.93;8.23;;;20.50;52.70;;;;;;5056740;28;20198;-46
2022/05/09 00:14:45;;;;;;;9.23;8.53;;;20.50;52.80;;;;;;5065431;28;20486;-44
2022/05/09 00:17:11;;;;;;;10.30;9.40;;;20.50;52.70;;;;;;5059183;28;20188;-47
2022/05/09 00:19:37;;;;;;;9.93;9.03;;;20.60;52.40;;;;;;5060755;28;20196;-48
2022/05/09 00:22:03;;;;;;;10.40;9.50;;;20.60;52.20;;;;;;5057419;28;20188;-46
2022/05/09 00:24:29;;;;;;;8.17;7.57;;;20.50;52.20;;;;;;5049741;28;20200;-45
2022/05/09 00:26:55;;;;;;;9.63;8.87;;;20.50;52.10;;;;;;5053503;28;20442;-44
2022/05/09 00:29:22;;;;;;;10.40;9.50;;;20.40;52.30;;;;;;5056643;28;20557;-47
2022/05/09 00:31:49;;;;;;;9.60;8.90;;;20.20;52.60;;;;;;5062775;28;20474;-44
2022/05/09 00:34:17;;;;;;;9.90;9.00;;;20.10;53.00;;;;;;5052889;28;20532;-46
2022/05/09 00:36:44;;;;;;;10.03;9.23;;;19.90;53.30;;;;;;5051069;28;20446;-43
2022/05/09 00:39:09;;;;;;;10.73;9.73;;;19.80;53.70;;;;;;5061834;28;20805;-44
2022/05/09 00:41:37;;;;;;;9.30;8.40;;;19.70;53.80;;;;;;5051639;28;20442;-46
2022/05/09 00:44:15;;;;;;;10.03;9.03;;;19.70;54.00;;;;;;5053052;28;20305;-48
2022/05/09 00:46:43;;;;;;;10.03;9.13;;;19.80;53.90;;;;;;5054212;28;20548;-44
2022/05/09 00:49:29;;;;;;;10.10;9.30;;;19.80;53.70;;;;;;5057567;28;20454;-48
2022/05/09 00:52:11;;;;;;;10.27;9.40;;;19.80;53.60;;;;;;5065775;28;20527;-44
2022/05/09 00:54:45;;;;;;;9.37;8.50;;;19.90;54.10;;;;;;5059295;28;20524;-44
2022/05/09 00:57:41;;;;;;;8.87;8.17;;;19.90;54.20;;;;;;5060114;28;20466;-43
2022/05/09 01:00:14;;;;;;;9.70;8.90;;;19.90;54.20;;;;;;5060934;28;20534;-45
2022/05/09 01:02:49;;;;;;;9.50;8.73;;;20.00;53.80;;;;;;5057635;28;20482;-44
2022/05/09 01:05:16;;;;;;;11.17;8.60;;;20.00;53.40;;;;;;5058320;28;20450;-47
2022/05/09 01:07:42;;;;;;;10.03;9.03;;;20.00;53.40;;;;;;5062954;28;20445;-44
2022/05/09 01:10:10;;;;;;;9.10;8.40;;;20.10;53.10;;;;;;5062792;28;20887;-46
2022/05/09 01:12:39;;;;;;;9.90;8.97;;;20.10;52.80;;;;;;5062786;28;20426;-44
2022/05/09 01:15:10;;;;;;;9.10;8.40;;;20.10;52.50;;;;;;5063186;28;20474;-46
2022/05/09 01:17:39;;;;;;;9.37;8.57;;;20.10;52.10;;;;;;5056029;28;20442;-46
2022/05/09 01:20:07;;;;;;;13.57;9.10;;;20.00;52.40;;;;;;5051378;28;20477;-46
2022/05/09 01:22:34;;;;;;;9.87;9.17;;;20.00;52.40;;;;;;5059753;28;20457;-46
2022/05/09 01:25:02;;;;;;;9.10;8.07;;;20.00;52.60;;;;;;5062821;28;20825;-46
2022/05/09 01:27:29;;;;;;;8.33;7.63;;;19.90;52.60;;;;;;5060008;28;20952;-47
2022/05/09 01:30:16;;;;;;;7.60;7.00;;;19.90;52.60;;;;;;5058685;28;20442;-44
2022/05/09 01:33:00;;;;;;;8.13;7.43;;;19.90;52.30;;;;;;5069645;28;21270;-45
2022/05/09 01:35:50;;;;;;;8.20;7.50;;;19.90;52.30;;;;;;5061147;28;20492;-46
2022/05/09 01:38:27;;;;;;;8.00;7.37;;;19.90;52.00;;;;;;5066552;28;20453;-45
2022/05/09 01:40:53;;;;;;;7.73;7.03;;;19.90;51.60;;;;;;5065994;28;20441;-44
2022/05/09 01:43:42;;;;;;;8.97;8.27;;;19.90;51.60;;;;;;5065253;28;20450;-44
2022/05/09 01:46:11;;;;;;;8.60;7.90;;;19.90;51.50;;;;;;5068679;28;20254;-46
2022/05/09 01:51:21;;;;;;;7.70;7.00;;;19.80;51.40;;;;;;5057652;28;20944;-44
2022/05/09 01:53:50;;;;;;;10.00;7.30;;;19.80;51.70;;;;;;5065789;28;20489;-45
2022/05/09 01:56:17;;;;;;;7.50;6.90;;;19.80;51.60;;;;;;5068051;28;20811;-47
2022/05/09 01:58:43;;;;;;;8.47;7.80;;;19.90;51.70;;;;;;5065466;28;20516;-45
2022/05/09 02:01:09;;;;;;;8.60;7.90;;;19.90;51.20;;;;;;5070787;28;20468;-45
2022/05/09 02:03:35;;;;;;;8.70;7.90;;;19.80;50.80;;;;;;5061968;28;20193;-46
2022/05/09 02:06:02;;;;;;;8.97;8.27;;;19.60;50.90;;;;;;5069542;28;20511;-45
2022/05/09 02:08:28;;;;;;;9.90;8.90;;;19.40;51.30;;;;;;5068584;28;20847;-44
2022/05/09 02:10:54;;;;;;;9.70;8.90;;;19.30;52.00;;;;;;5061481;28;20449;-48
2022/05/09 02:13:20;;;;;;;10.20;9.30;;;19.10;52.40;;;;;;5061926;28;20281;-46
2022/05/09 02:15:45;;;;;;;9.87;8.87;;;19.00;52.80;;;;;;5059720;28;20200;-44
2022/05/09 02:18:11;;;;;;;9.47;8.57;;;18.80;53.20;;;;;;5070761;28;20470;-44
2022/05/09 02:20:37;;;;;;;9.37;8.57;;;18.70;53.70;;;;;;5068442;28;20192;-44
2022/05/09 02:23:02;;;;;;;12.10;9.00;;;18.60;54.00;;;;;;5065791;28;20879;-44
2022/05/09 02:25:31;;;;;;;8.63;7.93;;;18.50;53.90;;;;;;5058428;28;20199;-44
2022/05/09 02:27:59;;;;;;;9.37;8.33;;;18.40;53.90;;;;;;5063070;28;20222;-44
2022/05/09 02:30:24;;;;;;;9.43;8.60;;;18.30;53.80;;;;;;5065067;28;20534;-46
2022/05/09 02:32:52;;;;;;;9.63;8.70;;;18.20;54.00;;;;;;5066397;28;20533;-45
2022/05/09 02:35:19;;;;;;;9.87;8.97;;;18.20;54.20;;;;;;5051433;28;20224;-44
2022/05/09 02:37:45;;;;;;;9.40;8.23;;;18.10;54.10;;;;;;5060249;28;20537;-44
2022/05/09 02:40:11;;;;;;;11.33;9.50;;;18.10;54.20;;;;;;5061609;28;20430;-45
2022/05/09 02:42:37;;;;;;;10.37;9.37;;;18.00;54.30;;;;;;5060074;28;20536;-44
2022/05/09 02:45:03;;;;;;;9.87;8.93;;;18.00;54.50;;;;;;5064565;28;21188;-45
2022/05/09 02:47:29;;;;;;;10.20;9.40;;;18.00;54.70;;;;;;5049203;28;20443;-44
2022/05/09 02:49:54;;;;;;;9.73;8.97;;;18.00;55.10;;;;;;5049026;28;20431;-45
2022/05/09 02:52:20;;;;;;;10.20;9.20;;;18.00;55.50;;;;;;5054667;28;20706;-45
2022/05/09 02:54:45;;;;;;;9.63;8.83;;;17.90;55.40;;;;;;5050108;28;20231;-45
2022/05/09 02:57:12;;;;;;;10.27;9.33;;;17.90;55.20;;;;;;5052448;28;20219;-45
2022/05/09 02:59:37;;;;;;;9.83;8.83;;;17.80;55.00;;;;;;5052125;28;20197;-46
2022/05/09 03:02:03;;;;;;;9.13;8.30;;;17.80;54.90;;;;;;5058244;28;20485;-44
2022/05/09 03:04:41;;;;;;;10.70;9.70;;;17.80;54.80;;;;;;5051962;28;20196;-45
2022/05/09 03:07:13;;;;;;;10.00;9.10;;;17.70;54.80;;;;;;5061712;28;20199;-45
2022/05/09 03:09:41;;;;;;;10.23;8.60;;;17.60;54.70;;;;;;5065172;28;20461;-45
2022/05/09 03:12:07;;;;;;;10.60;9.80;;;17.60;54.40;;;;;;5065629;28;20530;-46
2022/05/09 03:14:33;;;;;;;9.80;9.00;;;17.50;54.60;;;;;;5054074;28;21441;-45
2022/05/09 03:16:59;;;;;;;9.43;8.63;;;17.50;55.00;;;;;;5054261;28;20459;-47
2022/05/09 03:19:25;;;;;;;9.97;9.00;;;17.40;55.20;;;;;;5051504;28;20473;-45
2022/05/09 03:21:52;;;;;;;9.47;8.67;;;17.40;55.10;;;;;;5066958;28;20449;-45
2022/05/09 03:24:17;;;;;;;10.93;9.80;;;17.40;55.40;;;;;;5060802;28;20188;-48
2022/05/09 03:26:43;;;;;;;9.70;8.80;;;17.30;55.70;;;;;;5055500;28;20537;-44
2022/05/09 03:29:10;;;;;;;9.33;8.53;;;17.30;55.70;;;;;;5053801;28;20195;-45
2022/05/09 03:31:35;;;;;;;8.43;7.73;;;17.30;55.30;;;;;;5061805;28;20525;-44
2022/05/09 03:34:01;;;;;;;8.70;7.90;;;17.20;55.00;;;;;;5062159;28;20576;-45
2022/05/09 03:36:27;;;;;;;8.37;7.57;;;17.20;54.90;;;;;;5060058;28;20195;-46
2022/05/09 03:38:52;;;;;;;10.40;9.50;;;17.10;54.90;;;;;;5059628;28;20868;-46
2022/05/09 03:41:18;;;;;;;10.40;9.43;;;17.10;55.30;;;;;;5061074;28;20191;-43
2022/05/09 03:43:43;;;;;;;9.50;8.73;;;17.10;56.00;;;;;;5053251;28;20223;-43
2022/05/09 03:46:09;;;;;;;9.00;8.20;;;17.00;56.20;;;;;;5066236;28;20200;-44
2022/05/09 03:48:35;;;;;;;10.33;9.43;;;17.00;56.30;;;;;;5050706;28;20982;-44
2022/05/09 03:51:01;;;;;;;10.90;9.90;;;17.00;56.50;;;;;;5068956;28;20196;-45
2022/05/09 03:53:28;;;;;;;9.50;8.67;;;16.90;56.80;;;;;;5063628;28;20219;-45
2022/05/09 03:55:54;;;;;;;9.73;8.93;;;16.80;57.00;;;;;;5054109;28;20570;-45
2022/05/09 03:58:20;;;;;;;9.20;8.40;;;16.90;56.90;;;;;;5044691;28;20824;-44
2022/05/09 04:00:46;;;;;;;10.40;9.50;;;16.90;56.60;;;;;;5061145;28;20433;-46
2022/05/09 04:03:12;;;;;;;9.17;8.37;;;16.90;56.20;;;;;;5052835;28;20469;-45
2022/05/09 04:05:37;;;;;;;9.10;8.40;;;16.70;56.30;;;;;;5067988;28;20192;-44
2022/05/09 04:08:07;;;;;;;9.80;9.00;;;16.70;56.40;;;;;;5059469;28;21250;-44
2022/05/09 04:10:34;;;;;;;10.80;9.80;;;16.70;56.40;;;;;;5052979;28;20196;-45
2022/05/09 04:13:00;;;;;;;9.07;8.27;;;16.70;56.40;;;;;;5049699;28;20449;-45
2022/05/09 04:18:11;;;;;;;9.37;8.57;;;16.80;56.40;;;;;;5058482;28;20822;-46
2022/05/09 04:20:37;;;;;;;9.47;8.67;;;16.80;56.30;;;;;;5070633;28;20437;-45
2022/05/09 04:23:06;;;;;;;9.40;8.60;;;16.80;56.30;;;;;;5056188;28;20439;-45
2022/05/09 04:25:32;;;;;;;9.30;8.07;;;16.80;56.30;;;;;;5054245;28;20450;-44
2022/05/09 04:28:03;;;;;;;9.43;8.63;;;16.80;56.30;;;;;;5062526;28;20446;-46
2022/05/09 04:30:30;;;;;;;8.63;7.73;;;16.70;56.30;;;;;;5049517;28;20859;-44
2022/05/09 04:32:56;;;;;;;9.73;8.83;;;16.70;56.50;;;;;;5067212;28;20949;-46
2022/05/09 04:35:22;;;;;;;10.57;9.57;;;16.70;56.50;;;;;;5063686;28;20552;-44
2022/05/09 04:37:49;;;;;;;10.57;9.67;;;16.70;56.50;;;;;;5068422;28;20442;-44
2022/05/09 04:40:17;;;;;;;10.33;9.43;;;16.70;56.80;;;;;;5062282;28;20564;-45
2022/05/09 04:42:43;;;;;;;11.27;10.17;;;16.70;57.10;;;;;;5068401;28;20446;-45
2022/05/09 04:45:10;;;;;;;13.30;9.90;;;16.70;57.60;;;;;;5060953;28;20442;-44
2022/05/09 04:47:36;;;;;;;10.77;9.87;;;16.70;57.30;;;;;;5052999;28;20442;-45
2022/05/09 04:50:02;;;;;;;12.13;11.13;;;16.60;57.90;;;;;;5057237;28;20447;-44
2022/05/09 04:52:28;;;;;;;11.23;10.23;;;16.60;58.10;;;;;;5057043;28;20652;-44
2022/05/09 04:54:54;;;;;;;11.50;10.30;;;16.10;59.30;;;;;;5051432;28;20486;-44
2022/05/09 04:57:20;;;;;;;13.47;10.73;;;16.10;59.70;;;;;;5048563;28;21092;-45
2022/05/09 04:59:45;;;;;;;10.43;9.53;;;16.10;59.70;;;;;;5054668;28;20200;-45
2022/05/09 05:02:11;;;;;;;11.13;9.80;;;16.30;59.70;;;;;;5060568;28;20227;-44
2022/05/09 05:04:37;;;;;;;11.63;10.53;;;16.40;59.20;;;;;;5061542;28;20283;-44
2022/05/09 05:07:02;;;;;;;12.23;10.93;;;16.60;58.90;;;;;;5064811;28;20192;-44
2022/05/09 05:09:28;;;;;;;11.60;10.50;;;16.60;58.80;;;;;;5054655;28;20675;-45
2022/05/09 05:11:53;;;;;;;12.27;11.07;;;16.70;58.70;;;;;;5058708;28;20215;-44
2022/05/09 05:14:19;;;;;;;11.53;10.43;;;16.70;58.50;;;;;;5059908;28;20236;-44
2022/05/09 05:17:00;;;;;;;11.33;10.33;;;16.60;59.20;;;;;;5051926;28;20571;-45
2022/05/09 05:19:35;;;;;;;11.40;9.40;;;16.70;59.40;;;;;;5056643;28;20205;-44
2022/05/09 05:22:02;;;;;;;11.07;9.93;;;16.70;64.40;;;;;;5063177;28;20818;-46
2022/05/09 05:24:28;;;;;;;10.60;9.50;;;17.00;64.00;;;;;;5053577;28;20441;-47
2022/05/09 05:26:56;;;;;;;11.20;10.10;;;17.40;61.10;;;;;;5054802;28;20789;-45
2022/05/09 05:29:22;;;;;;;11.80;10.80;;;17.80;58.80;;;;;;5063449;28;20219;-45
2022/05/09 05:31:48;;;;;;;11.33;10.47;;;18.10;57.60;;;;;;5054709;28;20826;-46
2022/05/09 05:34:14;;;;;;;11.07;10.07;;;18.40;56.70;;;;;;5056852;28;20898;-49
2022/05/09 05:36:40;;;;;;;10.97;10.07;;;18.60;56.10;;;;;;5053484;28;20527;-47
2022/05/09 05:39:07;;;;;;;11.53;10.50;;;18.90;55.60;;;;;;5055124;28;20196;-44
2022/05/09 05:41:33;;;;;;;12.27;11.27;;;19.10;54.90;;;;;;5057943;28;20307;-46
2022/05/09 05:43:59;;;;;;;11.40;10.33;;;19.30;54.40;;;;;;5055223;28;20554;-45
2022/05/09 05:46:25;;;;;;;11.47;10.50;;;19.40;54.00;;;;;;5061142;28;20259;-46
2022/05/09 05:48:51;;;;;;;10.00;9.10;;;19.50;53.80;;;;;;5058364;28;20530;-45
2022/05/09 05:51:18;;;;;;;9.83;9.03;;;19.60;53.40;;;;;;5068772;28;20713;-48
2022/05/09 05:53:45;;;;;;;10.40;9.40;;;19.70;53.20;;;;;;5072484;28;20220;-46
2022/05/09 05:56:11;;;;;;;9.50;8.70;;;19.80;52.80;;;;;;5068348;28;20465;-44
2022/05/09 05:58:37;;;;;;;9.70;8.90;;;20.00;52.80;;;;;;5071419;28;20881;-44
2022/05/09 06:01:02;;;;;;;9.30;8.50;;;20.10;52.60;;;;;;5065947;28;20478;-45
2022/05/09 06:03:28;;;;;;;11.10;10.20;;;20.10;52.40;;;;;;5059076;28;20195;-45
2022/05/09 06:05:54;;;;;;;10.23;9.43;;;20.20;52.30;;;;;;5067714;28;20184;-45
2022/05/09 06:08:19;;;;;;;11.30;10.20;;;20.40;52.20;;;;;;5068623;28;20651;-45
2022/05/09 06:10:46;;;;;;;9.40;8.70;;;20.40;52.00;;;;;;5056348;28;20197;-45
2022/05/09 06:13:11;;;;;;;10.37;9.47;;;20.50;52.00;;;;;;5064686;28;20207;-47
2022/05/09 06:15:37;;;;;;;10.40;8.63;;;20.60;52.10;;;;;;5070518;28;20446;-45
2022/05/09 06:18:08;;;;;;;10.30;9.40;;;20.70;52.10;;;;;;5071075;28;20203;-48
2022/05/09 06:20:37;;;;;;;10.33;9.53;;;20.80;52.10;;;;;;5055804;28;20470;-47
2022/05/09 06:23:04;;;;;;;11.97;10.00;;;20.90;51.90;;;;;;5068712;28;20448;-46
2022/05/09 06:25:31;;;;;;;11.30;10.20;;;21.00;51.80;;;;;;5066067;28;20507;-44
2022/05/09 06:28:00;;;;;;;12.47;11.30;;;21.00;52.00;;;;;;5060113;28;20504;-47
2022/05/09 06:30:27;;;;;;;13.77;10.70;;;21.00;52.00;;;;;;5062757;28;20445;-46
2022/05/09 06:32:54;;;;;;;10.53;9.63;;;21.10;52.10;;;;;;5066477;28;20591;-46
2022/05/09 06:35:23;;;;;;;10.80;9.80;;;21.20;52.70;;;;;;5062964;28;20482;-46
2022/05/09 06:37:50;;;;;;;11.83;10.93;;;21.30;53.10;;;;;;5071740;28;20442;-45
2022/05/09 06:40:16;;;;;;;11.10;10.10;;;21.40;52.60;;;;;;5060627;28;21011;-45
2022/05/09 06:42:42;;;;;;;10.80;9.93;;;21.50;52.70;;;;;;5056955;28;20956;-44
2022/05/09 06:45:09;;;;;;;11.27;10.30;;;21.50;52.50;;;;;;5052627;28;20192;-45
2022/05/09 06:47:35;;;;;;;12.27;10.70;;;21.60;52.40;;;;;;5057036;28;20192;-45
2022/05/09 06:50:02;;;;;;;11.40;10.30;;;21.70;52.10;;;;;;5066229;28;20499;-47
2022/05/09 06:52:28;;;;;;;11.80;10.63;;;21.80;51.90;;;;;;5070513;28;20427;-46
2022/05/09 06:54:54;;;;;;;10.13;9.30;;;21.90;51.90;;;;;;5069393;28;20481;-45
2022/05/09 06:57:19;;;;;;;10.07;9.33;;;22.00;51.90;;;;;;5064098;28;20184;-46
2022/05/09 06:59:47;;;;;;;11.30;10.30;;;22.10;51.60;;;;;;5065348;28;20220;-47
2022/05/09 07:02:13;;;;;;;8.80;8.10;;;22.20;51.50;;;;;;5066596;28;20237;-48
2022/05/09 07:04:39;;;;;;;10.33;9.43;;;22.20;51.40;;;;;;5064477;28;20431;-45
2022/05/09 07:07:04;;;;;;;10.47;9.40;;;22.20;51.10;;;;;;5067106;28;20887;-49
2022/05/09 07:09:30;;;;;;;10.63;9.63;;;22.30;50.80;;;;;;5070280;28;20441;-48
2022/05/09 07:11:56;;;;;;;13.50;10.23;;;22.30;51.10;;;;;;5067051;28;20196;-44
2022/05/09 07:14:22;;;;;;;11.13;10.13;;;22.40;51.00;;;;;;5067293;28;20245;-45
2022/05/09 07:16:47;;;;;;;11.37;10.47;;;22.40;51.00;;;;;;5068445;28;20231;-47
2022/05/09 07:19:14;;;;;;;10.57;9.80;;;22.40;51.10;;;;;;5058304;28;21103;-47
2022/05/09 07:21:39;;;;;;;10.40;9.50;;;22.50;51.10;;;;;;5071041;28;20275;-45
2022/05/09 07:24:06;;;;;;;10.77;9.83;;;22.50;51.20;;;;;;5061413;28;20566;-45
2022/05/09 07:26:36;;;;;;;10.87;9.93;;;22.50;51.20;;;;;;5056130;28;20195;-48
2022/05/09 07:29:02;;;;;;;9.37;8.67;;;22.60;51.30;;;;;;5063217;28;20453;-48
2022/05/09 07:31:29;;;;;;;11.60;10.03;;;22.70;51.70;;;;;;5058656;28;20944;-48
2022/05/09 07:33:54;;;;;;;10.10;9.40;;;22.80;51.80;;;;;;5053103;28;20471;-47
2022/05/09 07:36:21;;;;;;;10.97;8.93;;;22.90;51.00;;;;;;5059793;28;20429;-45
2022/05/09 07:38:46;;;;;;;9.93;9.10;;;23.00;51.40;;;;;;5059876;28;20248;-49
2022/05/09 07:41:12;;;;;;;9.37;8.73;;;23.00;50.80;;;;;;5063778;28;20536;-47
2022/05/09 07:43:38;;;;;;;9.57;8.77;;;23.10;50.60;;;;;;5053023;28;20211;-46
2022/05/09 07:46:03;;;;;;;10.37;9.47;;;23.30;50.30;;;;;;5060711;28;20192;-47
2022/05/09 07:48:29;;;;;;;9.50;8.50;;;23.30;50.00;;;;;;5055887;28;20786;-47
2022/05/09 07:50:57;;;;;;;8.40;7.60;;;23.50;49.10;;;;;;5057724;28;20228;-45
2022/05/09 07:53:30;;;;;;;7.37;6.77;;;23.60;48.90;;;;;;5058878;28;20499;-46
2022/05/09 07:55:56;;;;;;;10.33;7.90;;;23.70;48.70;;;;;;5063179;28;20449;-49
2022/05/09 07:58:22;;;;;;;7.53;7.03;;;23.80;49.30;;;;;;5054703;28;20446;-49
2022/05/09 08:00:48;;;;;;;8.30;7.50;;;23.90;47.90;;;;;;5051303;28;20473;-47
2022/05/09 08:03:23;;;;;;;7.87;7.17;;;24.00;47.60;;;;;;5051106;28;20803;-48
2022/05/09 08:05:49;;;;;;;9.37;8.57;;;24.10;47.80;;;;;;5051202;28;22431;-45
2022/05/09 08:08:15;;;;;;;7.83;7.13;;;24.20;47.60;;;;;;5057840;28;20454;-46
2022/05/09 08:10:43;;;;;;;9.70;7.50;;;24.40;48.40;;;;;;5068711;28;20504;-45
2022/05/09 08:13:09;;;;;;;8.93;8.17;;;24.40;47.40;;;;;;5060400;28;20190;-49
2022/05/09 08:15:37;;;;;;;9.73;8.87;;;24.30;47.50;;;;;;5055852;28;21000;-46
2022/05/09 08:18:03;;;;;;;8.57;7.40;;;24.40;48.20;;;;;;5062831;28;20504;-47
2022/05/09 08:20:33;;;;;;;8.60;7.70;;;24.50;47.80;;;;;;5060668;28;20461;-50
2022/05/09 08:23:06;;;;;;;9.03;8.17;;;24.70;48.20;;;;;;5055798;28;20446;-48
2022/05/09 08:25:34;;;;;;;8.73;7.90;;;24.80;48.30;;;;;;5058141;28;21008;-48
2022/05/09 08:28:01;;;;;;;9.50;8.53;;;25.00;47.90;;;;;;5052187;28;20961;-46
2022/05/09 08:30:32;;;;;;;8.50;7.80;;;25.10;48.20;;;;;;5059527;28;20803;-45
2022/05/09 08:32:58;;;;;;;8.60;7.90;;;25.20;47.90;;;;;;5054575;28;20499;-48
2022/05/09 08:35:24;;;;;;;7.10;6.50;;;25.30;47.60;;;;;;5061454;28;20485;-45
2022/05/09 08:37:50;;;;;;;7.90;7.20;;;25.40;47.60;;;;;;5056616;28;20450;-46
2022/05/09 08:40:17;;;;;;;7.63;6.93;;;25.50;47.20;;;;;;5058825;28;20190;-48
2022/05/09 08:42:53;;;;;;;7.00;6.50;;;25.50;46.50;;;;;;5062524;28;20207;-46
2022/05/09 08:45:33;;;;;;;7.10;6.50;;;25.70;45.70;;;;;;5056438;28;20537;-50
2022/05/09 08:48:15;;;;;;;9.90;7.23;;;25.90;44.20;;;;;;5053015;28;20505;-46
2022/05/09 08:51:06;;;;;;;7.70;6.90;;;25.90;44.30;;;;;;5059827;28;20508;-45
2022/05/09 08:53:39;;;;;;;6.87;6.27;;;26.20;44.40;;;;;;5053587;28;20443;-45
2022/05/09 08:56:07;;;;;;;7.63;7.03;;;26.40;44.30;;;;;;5066476;28;20442;-46
2022/05/09 08:58:45;;;;;;;7.80;7.20;;;26.50;45.10;;;;;;5060496;28;20437;-45
2022/05/09 09:01:23;;;;;;;7.63;7.03;;;26.60;43.40;;;;;;5052223;28;20506;-45
2022/05/09 09:04:21;;;;;;;8.17;7.50;;;26.70;43.80;;;;;;5054496;28;20458;-45
2022/05/09 09:06:52;;;;;;;6.93;6.40;;;26.80;43.40;;;;;;5051143;28;20969;-46
2022/05/09 09:09:37;;;;;;;5.97;5.47;;;26.80;43.40;;;;;;5058658;28;20899;-45
2022/05/09 09:12:31;;;;;;;7.23;6.63;;;26.70;42.60;;;;;;5063258;28;20457;-47
2022/05/09 09:15:07;;;;;;;6.27;5.70;;;26.80;42.40;;;;;;5061119;28;20619;-45
2022/05/09 09:17:43;;;;;;;7.43;6.73;;;26.80;41.60;;;;;;5066217;28;20442;-45
2022/05/09 09:20:23;;;;;;;7.30;6.77;;;26.90;41.60;;;;;;5063501;28;20449;-45
2022/05/09 09:23:15;;;;;;;7.90;7.10;;;27.10;41.20;;;;;;5058039;28;20456;-46
2022/05/09 09:26:04;;;;;;;6.43;6.03;;;27.00;41.60;;;;;;5057569;28;20451;-45
2022/05/09 09:28:49;;;;;;;6.63;6.13;;;27.10;41.10;;;;;;5055895;28;20460;-45
2022/05/09 09:31:41;;;;;;;10.63;7.90;;;27.40;40.60;;;;;;5080131;28;20975;-49
2022/05/09 09:34:15;;;;;;;6.60;6.10;;;27.10;40.30;;;;;;5051145;28;20845;-45
2022/05/09 09:36:50;;;;;;;6.17;5.67;;;27.20;40.80;;;;;;5062088;28;20452;-45
2022/05/09 09:39:20;;;;;;;7.23;6.43;;;27.30;40.70;;;;;;5061930;28;20444;-49
2022/05/09 09:41:46;;;;;;;6.37;5.87;;;27.70;40.20;;;;;;5054243;28;20439;-50
2022/05/09 09:44:21;;;;;;;5.67;5.27;;;28.00;39.80;;;;;;5067430;28;20442;-46
2022/05/09 09:47:05;;;;;;;6.70;6.20;;;28.20;39.00;;;;;;5052254;28;20454;-48
2022/05/09 09:49:33;;;;;;;6.47;5.97;;;28.40;38.80;;;;;;5064675;28;20473;-45
2022/05/09 09:51:59;;;;;;;6.37;5.87;;;28.40;38.20;;;;;;5065353;28;20505;-48
2022/05/09 09:54:28;;;;;;;6.70;6.10;;;27.90;39.30;;;;;;5066878;28;20846;-45
2022/05/09 09:56:54;;;;;;;6.53;6.03;;;27.50;39.60;;;;;;5056991;28;20473;-49
2022/05/09 09:59:23;;;;;;;7.40;5.77;;;27.90;39.20;;;;;;5060855;28;20572;-45
2022/05/09 10:02:12;;;;;;;7.03;6.50;;;28.10;39.10;;;;;;5065404;28;20228;-46
2022/05/09 10:04:37;;;;;;;6.47;6.03;;;28.50;39.10;;;;;;5055265;28;20442;-45
2022/05/09 10:07:33;;;;;;;6.87;6.27;;;28.70;38.40;;;;;;5065560;28;20449;-49
2022/05/09 10:10:20;;;;;;;7.40;6.70;;;28.80;37.60;;;;;;5046568;28;20220;-47
2022/05/09 10:12:49;;;;;;;6.30;5.87;;;28.80;37.90;;;;;;5064450;28;20800;-46
2022/05/09 10:15:36;;;;;;;6.90;6.50;;;28.80;38.50;;;;;;5069229;28;20486;-46
2022/05/09 10:18:22;;;;;;;6.43;5.83;;;29.00;37.30;;;;;;5068256;28;20442;-47
2022/05/09 10:20:51;;;;;;;6.27;5.10;;;28.80;37.60;;;;;;5063136;28;20458;-45
2022/05/09 10:26:04;;;;;;;5.47;4.97;;;28.60;36.50;;;;;;5059599;28;20454;-46
2022/05/09 10:28:37;;;;;;;6.10;5.60;;;28.50;37.40;;;;;;5069285;28;20442;-45
2022/05/09 10:31:17;;;;;;;6.40;5.80;;;28.70;37.10;;;;;;5067801;28;20878;-46
2022/05/09 10:33:42;;;;;;;5.80;5.40;;;28.70;36.50;;;;;;5060975;28;20482;-47
2022/05/09 10:36:16;;;;;;;6.87;6.40;;;29.10;37.50;;;;;;5066642;28;20441;-46
2022/05/09 10:38:55;;;;;;;6.00;5.50;;;29.50;36.20;;;;;;5060514;28;20196;-45
2022/05/09 10:41:55;;;;;;;5.20;4.90;;;29.50;35.10;;;;;;5059690;28;20511;-46
2022/05/09 10:44:37;;;;;;;5.90;5.47;;;29.50;35.80;;;;;;5048010;28;20508;-46
2022/05/09 10:47:26;;;;;;;5.57;5.27;;;29.90;35.30;;;;;;5057476;28;21120;-49
2022/05/09 10:50:02;;;;;;;6.00;5.50;;;30.00;34.50;;;;;;5060597;28;20442;-47
2022/05/09 10:52:45;;;;;;;6.87;5.07;;;30.00;33.80;;;;;;5063366;28;20574;-45
2022/05/09 10:55:23;;;;;;;6.30;5.80;;;30.20;33.60;;;;;;5070489;28;20996;-46
2022/05/09 10:58:12;;;;;;;5.80;5.27;;;30.80;33.60;;;;;;5062864;28;20528;-46
2022/05/09 11:00:46;;;;;;;5.90;5.50;;;31.10;33.20;;;;;;5065455;28;20462;-45
2022/05/09 11:03:23;;;;;;;6.57;6.07;;;31.10;32.90;;;;;;5055050;28;20439;-46
2022/05/09 11:06:13;;;;;;;6.23;5.63;;;30.80;33.50;;;;;;5052331;28;20442;-45
2022/05/09 11:08:47;;;;;;;6.13;5.60;;;30.70;32.90;;;;;;5062299;28;20476;-44
2022/05/09 11:11:29;;;;;;;5.70;5.30;;;30.90;32.50;;;;;;5070461;28;20459;-45
2022/05/09 11:14:19;;;;;;;4.70;4.40;;;31.50;32.10;;;;;;5055440;28;20482;-44
2022/05/09 11:16:44;;;;;;;5.40;4.97;;;31.70;30.70;;;;;;5048884;28;20450;-45
2022/05/09 11:19:29;;;;;;;4.90;4.50;;;31.60;30.60;;;;;;5067598;28;20457;-44
2022/05/09 11:22:07;;;;;;;5.57;5.03;;;31.80;29.90;;;;;;5070642;28;20206;-45
2022/05/09 11:24:44;;;;;;;5.83;5.43;;;31.80;30.50;;;;;;5058472;28;20550;-43
2022/05/09 11:27:15;;;;;;;5.40;4.90;;;31.70;30.60;;;;;;5064154;28;20445;-44
2022/05/09 11:29:50;;;;;;;5.97;5.50;;;31.60;30.50;;;;;;5068661;28;20990;-44
2022/05/09 11:32:28;;;;;;;6.20;4.87;;;31.20;30.70;;;;;;5062174;28;20460;-47
2022/05/09 11:35:08;;;;;;;5.40;5.10;;;30.90;31.10;;;;;;5068501;28;20543;-44
2022/05/09 11:37:44;;;;;;;5.10;4.80;;;31.10;31.30;;;;;;5068597;28;20561;-45
2022/05/09 11:40:26;;;;;;;5.57;5.10;;;31.50;30.80;;;;;;5059013;28;20527;-45
2022/05/09 11:45:51;;;;;;;5.40;5.00;;;32.20;31.20;;;;;;5067809;28;20433;-45
2022/05/09 11:48:29;;;;;;;5.80;5.40;;;32.30;30.40;;;;;;5061734;28;20465;-44
2022/05/09 11:51:04;;;;;;;5.70;5.13;;;32.40;30.00;;;;;;5059251;28;20476;-44
2022/05/09 11:53:35;;;;;;;5.73;5.27;;;32.60;29.60;;;;;;5070375;28;20428;-44
2022/05/09 11:56:05;;;;;;;5.87;5.37;;;32.40;29.00;;;;;;5058396;28;20452;-45
2022/05/09 11:58:37;;;;;;;6.90;5.17;;;32.30;29.40;;;;;;5061116;28;20789;-45
2022/05/09 12:01:03;;;;;;;5.40;4.90;;;32.00;29.30;;;;;;5066217;28;20508;-45
2022/05/09 12:03:41;;;;;;;5.43;5.03;;;31.60;29.40;;;;;;5051398;28;20474;-46
2022/05/09 12:06:33;;;;;;;5.80;5.30;;;31.80;30.00;;;;;;5051482;28;20210;-46
2022/05/09 12:09:01;;;;;;;5.43;4.93;;;31.80;29.40;;;;;;5068096;28;20478;-47
2022/05/09 12:11:33;;;;;;;5.03;4.60;;;31.90;29.80;;;;;;5067445;28;20633;-46
2022/05/09 12:14:04;;;;;;;5.47;5.07;;;32.00;30.50;;;;;;5062428;28;20482;-47
2022/05/09 12:16:36;;;;;;;5.73;5.10;;;32.10;29.80;;;;;;5056455;28;20454;-45
2022/05/09 12:19:05;;;;;;;8.40;4.87;;;32.40;31.10;;;;;;5060630;28;20540;-45
2022/05/09 12:21:37;;;;;;;5.80;5.40;;;32.40;29.10;;;;;;5054631;28;20529;-49
2022/05/09 12:24:15;;;;;;;6.33;5.63;;;32.70;29.50;;;;;;5058814;28;20450;-45
2022/05/09 12:26:46;;;;;;;5.30;4.80;;;32.70;29.00;;;;;;5062060;28;20453;-46
2022/05/09 12:29:32;;;;;;;5.70;5.30;;;32.70;28.60;;;;;;5059218;28;20434;-45
2022/05/09 12:32:00;;;;;;;6.00;4.50;;;32.90;29.30;;;;;;5054234;28;20523;-49
2022/05/09 12:34:38;;;;;;;5.80;4.63;;;32.90;30.00;;;;;;5053037;28;20474;-45
2022/05/09 12:37:05;;;;;;;5.87;5.37;;;32.90;29.50;;;;;;5053879;28;20877;-45
2022/05/09 12:39:39;;;;;;;5.40;5.10;;;32.90;29.00;;;;;;5055636;28;20549;-47
2022/05/09 12:42:12;;;;;;;5.23;4.83;;;32.90;28.50;;;;;;5057902;28;20810;-47
2022/05/09 12:44:51;;;;;;;6.17;5.73;;;32.90;28.40;;;;;;5054865;28;20457;-46
2022/05/09 12:47:22;;;;;;;5.07;4.77;;;33.00;28.60;;;;;;5056997;28;20435;-45
2022/05/09 12:50:15;;;;;;;5.43;4.97;;;33.20;28.80;;;;;;5065440;28;20473;-44
2022/05/09 12:52:49;;;;;;;6.23;4.83;;;33.20;29.40;;;;;;5064301;28;21030;-44
2022/05/09 12:57:59;;;;;;;6.30;5.53;;;33.20;29.40;;;;;;5064347;28;20448;-46
2022/05/09 13:00:30;;;;;;;5.37;4.97;;;32.70;29.00;;;;;;5061647;28;20468;-45
2022/05/09 13:03:08;;;;;;;5.63;5.23;;;32.50;29.70;;;;;;5066625;28;20200;-45
2022/05/09 13:05:38;;;;;;;5.23;4.83;;;31.90;30.00;;;;;;5064718;28;20484;-45
2022/05/09 13:08:06;;;;;;;5.90;5.50;;;31.70;30.60;;;;;;5060412;28;20562;-45
2022/05/09 13:10:32;;;;;;;5.50;5.10;;;31.40;29.60;;;;;;5060574;28;20453;-50
2022/05/09 13:13:05;;;;;;;5.60;4.70;;;30.60;30.50;;;;;;5068357;28;20487;-46